createdAt,value
2023-03-26T00:01:46.778Z,19.88
2023-03-26T00:06:50.318Z,15.55
2023-03-26T00:09:19.182Z,16.73
2023-03-26T00:11:47.347Z,15.13
2023-03-26T00:14:17.858Z,20.00
2023-03-26T00:16:47.457Z,27.15
2023-03-26T00:19:17.034Z,16.63
2023-03-26T00:21:44.846Z,18.00
2023-03-26T00:24:16.303Z,18.98
2023-03-26T00:26:44.628Z,17.95
2023-03-26T00:29:13.946Z,14.88
2023-03-26T00:31:46.363Z,19.70
2023-03-26T00:34:15.818Z,15.43
2023-03-26T00:36:46.897Z,12.98
2023-03-26T00:39:15.326Z,16.52
2023-03-26T00:41:44.231Z,16.50
2023-03-26T00:44:12.457Z,12.38
2023-03-26T00:46:40.361Z,15.13
2023-03-26T00:49:10.669Z,14.90
2023-03-26T00:51:39.680Z,16.00
2023-03-26T00:54:11.034Z,13.13
2023-03-26T00:56:39.079Z,13.18
2023-03-26T00:59:09.216Z,14.75
2023-03-26T01:01:37.731Z,14.75
2023-03-26T01:04:31.914Z,17.75
2023-03-26T01:07:03.912Z,15.02
2023-03-26T01:09:42.633Z,17.05
2023-03-26T01:12:15.565Z,11.30
2023-03-26T01:14:44.222Z,13.00
2023-03-26T01:17:13.462Z,14.48
2023-03-26T01:19:49.521Z,12.75
2023-03-26T01:22:20.185Z,15.10
2023-03-26T01:24:53.865Z,13.75
2023-03-26T01:27:32.210Z,13.73
2023-03-26T01:30:06.053Z,12.73
2023-03-26T01:32:47.491Z,11.63
2023-03-26T01:35:30.114Z,13.88
2023-03-26T01:38:11.002Z,16.40
2023-03-26T01:40:46.869Z,19.65
2023-03-26T01:43:22.699Z,15.50
2023-03-26T01:45:52.692Z,15.55
2023-03-26T01:48:21.258Z,20.17
2023-03-26T01:50:53.580Z,23.52
2023-03-26T01:53:21.704Z,17.73
2023-03-26T01:55:59.572Z,23.38
2023-03-26T01:58:36.153Z,14.20
2023-03-26T02:01:16.861Z,20.88
2023-03-26T02:03:50.965Z,17.02
2023-03-26T02:06:25.716Z,13.38
2023-03-26T02:08:57.660Z,15.48
2023-03-26T02:11:34.814Z,16.13
2023-03-26T02:14:04.870Z,22.60
2023-03-26T02:16:32.764Z,17.98
2023-03-26T02:19:00.715Z,13.20
2023-03-26T02:21:28.896Z,19.65
2023-03-26T02:24:02.855Z,18.45
2023-03-26T02:26:37.684Z,20.80
2023-03-26T02:29:12.320Z,20.08
2023-03-26T02:31:43.344Z,29.55
2023-03-26T02:34:11.290Z,27.63
2023-03-26T02:36:42.813Z,32.85
2023-03-26T02:39:12.015Z,22.58
2023-03-26T02:41:41.616Z,20.80
2023-03-26T02:44:12.045Z,17.73
2023-03-26T02:46:59.778Z,13.60
2023-03-26T02:49:46.314Z,14.98
2023-03-26T02:52:20.849Z,14.90
2023-03-26T02:54:50.670Z,14.20
2023-03-26T02:57:22.383Z,12.05
2023-03-26T03:00:11.091Z,16.70
2023-03-26T03:02:39.190Z,15.23
2023-03-26T03:05:28.775Z,19.85
2023-03-26T03:08:18.256Z,18.95
2023-03-26T03:11:02.988Z,20.95
2023-03-26T03:13:45.486Z,20.70
2023-03-26T03:16:17.750Z,25.88
2023-03-26T03:18:46.501Z,22.55
2023-03-26T03:21:14.733Z,17.55
2023-03-26T03:23:42.527Z,28.15
2023-03-26T03:26:15.590Z,26.45
2023-03-26T03:28:48.971Z,33.85
2023-03-26T03:31:18.197Z,32.45
2023-03-26T03:33:46.498Z,27.05
2023-03-26T03:36:19.804Z,30.80
2023-03-26T03:38:56.142Z,34.25
2023-03-26T03:41:24.900Z,33.30
2023-03-26T03:43:54.132Z,30.88
2023-03-26T03:46:30.301Z,33.72
2023-03-26T03:48:58.442Z,38.03
2023-03-26T03:51:31.347Z,30.98
2023-03-26T03:54:04.135Z,33.88
2023-03-26T03:57:02.094Z,32.65
2023-03-26T03:59:31.392Z,31.83
2023-03-26T04:02:00.839Z,34.17
2023-03-26T04:04:46.349Z,38.38
2023-03-26T04:07:16.820Z,32.78
2023-03-26T04:10:09.763Z,31.30
2023-03-26T04:13:09.890Z,34.20
2023-03-26T04:15:54.507Z,40.47
2023-03-26T04:18:23.343Z,33.58
2023-03-26T04:20:51.159Z,35.80
2023-03-26T04:23:26.483Z,40.22
2023-03-26T04:26:04.464Z,34.72
2023-03-26T04:29:17.105Z,29.45
2023-03-26T04:31:50.292Z,38.40
2023-03-26T04:34:24.173Z,35.35
2023-03-26T04:37:21.657Z,33.17
2023-03-26T04:40:00.517Z,31.33
2023-03-26T04:42:41.659Z,34.08
2023-03-26T04:45:22.924Z,29.98
2023-03-26T04:47:59.051Z,32.75
2023-03-26T04:50:27.438Z,32.97
2023-03-26T04:52:58.281Z,35.30
2023-03-26T04:56:01.491Z,37.95
2023-03-26T04:59:01.032Z,33.28
2023-03-26T05:01:32.191Z,30.33
2023-03-26T05:04:01.546Z,33.83
2023-03-26T05:06:34.292Z,37.60
2023-03-26T05:09:07.182Z,32.28
2023-03-26T05:11:53.603Z,37.17
2023-03-26T05:14:21.657Z,33.40
2023-03-26T05:16:53.299Z,38.47
2023-03-26T05:19:23.094Z,27.38
2023-03-26T05:21:51.189Z,35.88
2023-03-26T05:24:19.841Z,28.92
2023-03-26T05:26:47.818Z,34.40
2023-03-26T05:29:18.569Z,30.83
2023-03-26T05:31:50.209Z,35.05
2023-03-26T05:34:18.007Z,33.50
2023-03-26T05:36:48.558Z,35.15
2023-03-26T05:39:38.669Z,38.35
2023-03-26T05:42:27.050Z,33.65
2023-03-26T05:45:09.151Z,27.30
2023-03-26T05:47:37.328Z,32.00
2023-03-26T05:50:07.544Z,33.75
2023-03-26T05:52:39.551Z,37.33
2023-03-26T05:55:25.676Z,29.98
2023-03-26T05:58:11.823Z,32.55
2023-03-26T06:01:18.522Z,33.63
2023-03-26T06:04:05.139Z,31.35
2023-03-26T06:06:39.218Z,33.63
2023-03-26T06:09:08.774Z,33.53
2023-03-26T06:11:36.884Z,27.48
2023-03-26T06:14:05.723Z,34.50
2023-03-26T06:16:34.880Z,32.70
2023-03-26T06:19:22.168Z,31.00
2023-03-26T06:22:12.336Z,27.85
2023-03-26T06:25:12.639Z,34.30
2023-03-26T06:27:55.361Z,32.47
2023-03-26T06:31:01.099Z,32.90
2023-03-26T06:33:34.243Z,33.13
2023-03-26T06:36:02.208Z,32.83
2023-03-26T06:38:30.244Z,28.15
2023-03-26T06:41:05.438Z,30.10
2023-03-26T06:43:56.702Z,29.92
2023-03-26T06:46:42.901Z,33.03
2023-03-26T06:49:29.063Z,32.33
2023-03-26T06:52:17.366Z,31.67
2023-03-26T06:55:06.555Z,30.70
2023-03-26T06:57:58.065Z,27.10
2023-03-26T07:00:44.214Z,32.35
2023-03-26T07:03:30.515Z,24.67
2023-03-26T07:06:16.766Z,25.77
2023-03-26T07:09:03.632Z,26.70
2023-03-26T07:11:49.683Z,24.42
2023-03-26T07:14:18.832Z,25.10
2023-03-26T07:17:01.791Z,30.10
2023-03-26T07:19:36.757Z,35.20
2023-03-26T07:22:05.481Z,30.77
2023-03-26T07:24:52.516Z,27.40
2023-03-26T07:27:54.162Z,34.55
2023-03-26T07:30:45.327Z,27.92
2023-03-26T07:36:21.984Z,37.42
2023-03-26T07:39:40.596Z,29.60
2023-03-26T07:42:34.997Z,30.38
2023-03-26T07:45:44.516Z,34.42
2023-03-26T07:51:34.606Z,40.85
2023-03-26T07:54:23.031Z,41.92
2023-03-26T07:57:18.706Z,26.80
2023-03-26T08:00:02.275Z,30.70
2023-03-26T08:03:10.707Z,34.08
2023-03-26T08:06:02.880Z,33.17
2023-03-26T08:08:43.310Z,29.65
2023-03-26T08:11:50.346Z,35.92
2023-03-26T08:14:31.432Z,28.63
2023-03-26T08:17:07.821Z,30.80
2023-03-26T08:19:46.582Z,29.25
2023-03-26T08:22:20.882Z,28.92
2023-03-26T08:25:01.851Z,33.35
2023-03-26T08:27:38.498Z,33.42
2023-03-26T08:30:12.210Z,29.60
2023-03-26T08:32:40.928Z,31.58
2023-03-26T08:35:13.425Z,35.08
2023-03-26T08:37:41.327Z,32.63
2023-03-26T08:40:11.158Z,32.35
2023-03-26T08:43:23.101Z,30.27
2023-03-26T08:46:19.760Z,33.85
2023-03-26T08:49:18.714Z,27.60
2023-03-26T08:52:24.659Z,31.73
2023-03-26T08:55:26.913Z,25.65
2023-03-26T08:58:27.066Z,37.40
2023-03-26T09:01:24.292Z,31.90
2023-03-26T09:04:12.820Z,32.33
2023-03-26T09:07:06.798Z,36.50
2023-03-26T09:10:09.120Z,34.08
2023-03-26T09:13:09.701Z,36.42
2023-03-26T09:16:06.444Z,40.05
2023-03-26T09:19:00.835Z,30.48
2023-03-26T09:22:01.251Z,36.90
2023-03-26T09:24:45.570Z,33.97
2023-03-26T09:27:36.596Z,36.25
2023-03-26T09:30:58.429Z,27.48
2023-03-26T09:33:49.691Z,27.17
2023-03-26T09:36:27.680Z,31.17
2023-03-26T09:39:03.823Z,29.88
2023-03-26T09:41:42.290Z,25.60
2023-03-26T09:44:40.853Z,29.17
2023-03-26T09:47:35.979Z,24.60
2023-03-26T09:50:22.317Z,31.73
2023-03-26T09:53:03.740Z,24.75
2023-03-26T09:55:44.168Z,26.77
2023-03-26T09:58:42.476Z,25.75
2023-03-26T10:01:18.219Z,24.00
2023-03-26T10:04:00.590Z,25.20
2023-03-26T10:06:44.427Z,23.17
2023-03-26T10:09:23.682Z,21.58
2023-03-26T10:12:09.646Z,18.98
2023-03-26T10:14:45.121Z,20.15
2023-03-26T10:17:29.296Z,18.48
2023-03-26T10:20:17.790Z,17.50
2023-03-26T10:22:57.790Z,20.52
2023-03-26T10:25:43.083Z,16.13
2023-03-26T10:28:27.094Z,15.15
2023-03-26T10:31:09.423Z,17.52
2023-03-26T10:33:50.473Z,15.77
2023-03-26T10:36:37.011Z,18.90
2023-03-26T10:39:36.648Z,17.30
2023-03-26T10:42:21.809Z,13.13
2023-03-26T10:45:11.435Z,15.60
2023-03-26T10:48:13.418Z,14.55
2023-03-26T10:50:54.040Z,13.20
2023-03-26T10:53:32.053Z,14.00
2023-03-26T10:56:07.211Z,15.60
2023-03-26T10:58:48.591Z,13.65
2023-03-26T11:01:32.870Z,16.10
2023-03-26T11:04:16.245Z,13.23
2023-03-26T11:06:55.299Z,16.75
2023-03-26T11:09:35.196Z,15.02
2023-03-26T11:12:26.717Z,15.50
2023-03-26T11:15:07.812Z,12.45
2023-03-26T11:17:45.313Z,13.60
2023-03-26T11:20:21.429Z,14.95
2023-03-26T11:23:05.604Z,17.25
2023-03-26T11:25:43.915Z,17.38
2023-03-26T11:28:24.566Z,15.88
2023-03-26T11:31:00.169Z,16.02
2023-03-26T11:33:33.647Z,14.07
2023-03-26T11:36:04.344Z,14.02
2023-03-26T11:38:38.369Z,13.23
2023-03-26T11:41:13.837Z,14.85
2023-03-26T11:43:57.902Z,15.75
2023-03-26T11:46:33.239Z,17.70
2023-03-26T11:51:36.735Z,13.55
2023-03-26T11:54:07.865Z,12.23
2023-03-26T11:59:12.771Z,16.20
2023-03-26T12:01:50.677Z,15.82
2023-03-26T12:04:21.004Z,15.13
2023-03-26T12:06:56.685Z,15.10
2023-03-26T12:09:26.581Z,15.80
2023-03-26T12:12:00.400Z,13.25
2023-03-26T12:14:31.436Z,16.35
2023-03-26T12:17:02.927Z,14.00
2023-03-26T12:19:39.377Z,17.35
2023-03-26T12:22:08.323Z,10.65
2023-03-26T12:24:37.559Z,13.38
2023-03-26T12:27:22.530Z,12.90
2023-03-26T12:29:54.929Z,17.05
2023-03-26T12:32:32.387Z,14.23
2023-03-26T12:35:09.087Z,13.32
2023-03-26T12:37:39.381Z,12.27
2023-03-26T12:40:27.222Z,13.20
2023-03-26T12:44:49.866Z,11.57
2023-03-26T12:45:45.392Z,13.43
2023-03-26T12:48:34.147Z,9.68
2023-03-26T12:51:15.754Z,12.05
2023-03-26T12:53:57.930Z,14.50
2023-03-26T12:56:36.835Z,14.43
2023-03-26T12:59:19.435Z,11.32
2023-03-26T13:01:56.139Z,16.48
2023-03-26T13:04:58.404Z,15.32
2023-03-26T13:07:47.409Z,14.45
2023-03-26T13:11:00.780Z,12.52
2023-03-26T13:13:47.059Z,9.98
2023-03-26T13:16:22.262Z,11.23
2023-03-26T13:18:55.061Z,9.60
2023-03-26T13:21:32.792Z,11.65
2023-03-26T13:24:12.299Z,10.63
2023-03-26T13:26:53.838Z,10.80
2023-03-26T13:29:32.696Z,10.73
2023-03-26T13:32:09.147Z,8.32
2023-03-26T13:34:50.446Z,10.93
2023-03-26T13:37:25.868Z,12.50
2023-03-26T13:40:02.225Z,10.43
2023-03-26T13:42:40.589Z,11.52
2023-03-26T13:45:23.091Z,10.63
2023-03-26T13:47:55.231Z,10.57
2023-03-26T13:50:26.724Z,11.00
2023-03-26T13:52:59.555Z,7.47
2023-03-26T13:55:31.514Z,11.32
2023-03-26T13:58:04.871Z,11.68
2023-03-26T14:00:54.454Z,9.68
2023-03-26T14:03:30.653Z,10.40
2023-03-26T14:06:04.758Z,7.63
2023-03-26T14:08:37.291Z,11.95
2023-03-26T14:11:11.056Z,9.32
2023-03-26T14:13:48.530Z,10.57
2023-03-26T14:16:22.642Z,9.10
2023-03-26T14:18:58.321Z,9.45
2023-03-26T14:21:52.056Z,10.00
2023-03-26T14:25:03.920Z,8.40
2023-03-26T14:27:45.328Z,10.98
2023-03-26T14:30:58.002Z,10.48
2023-03-26T14:36:30.567Z,12.50
2023-03-26T14:39:38.674Z,9.20
2023-03-26T14:42:18.880Z,8.38
2023-03-26T14:45:06.510Z,10.50
2023-03-26T14:47:43.009Z,9.38
2023-03-26T14:50:50.443Z,11.50
2023-03-26T14:53:29.301Z,10.88
2023-03-26T14:56:21.911Z,6.93
2023-03-26T14:59:19.515Z,8.75
2023-03-26T15:02:38.057Z,9.20
2023-03-26T15:05:47.808Z,10.25
2023-03-26T15:09:06.985Z,11.40
2023-03-26T15:11:46.737Z,8.57
2023-03-26T15:14:42.953Z,8.43
2023-03-26T15:17:42.466Z,9.52
2023-03-26T15:20:43.709Z,7.72
2023-03-26T15:23:47.945Z,11.45
2023-03-26T15:27:09.335Z,11.88
2023-03-26T15:30:03.648Z,11.52
2023-03-26T15:33:12.885Z,8.15
2023-03-26T15:36:09.753Z,8.93
2023-03-26T15:39:03.556Z,8.25
2023-03-26T15:41:40.977Z,10.13
2023-03-26T15:44:38.080Z,9.02
2023-03-26T15:47:43.435Z,7.80
2023-03-26T15:50:39.070Z,8.98
2023-03-26T15:53:19.404Z,9.57
2023-03-26T15:56:06.647Z,10.52
2023-03-26T15:58:44.148Z,12.05
2023-03-26T16:01:19.840Z,10.02
2023-03-26T16:03:56.449Z,11.80
2023-03-26T16:06:32.874Z,10.30
2023-03-26T16:09:22.754Z,7.25
2023-03-26T16:11:55.496Z,10.88
2023-03-26T16:14:25.197Z,6.22
2023-03-26T16:16:57.283Z,7.65
2023-03-26T16:19:50.345Z,7.57
2023-03-26T16:22:44.353Z,9.15
2023-03-26T16:25:33.210Z,9.15
2023-03-26T16:28:28.274Z,9.15
2023-03-26T16:34:40.305Z,11.88
2023-03-26T16:37:36.278Z,10.45
2023-03-26T16:40:27.874Z,7.68
2023-03-26T16:43:04.573Z,10.93
2023-03-26T16:45:38.177Z,12.75
2023-03-26T16:48:18.365Z,6.53
2023-03-26T16:50:53.375Z,7.70
2023-03-26T16:53:34.819Z,8.48
2023-03-26T16:56:08.777Z,9.48
2023-03-26T16:58:48.058Z,7.45
2023-03-26T17:01:27.508Z,6.25
2023-03-26T17:04:01.162Z,9.63
2023-03-26T17:06:56.571Z,10.90
2023-03-26T17:09:35.022Z,8.05
2023-03-26T17:12:09.368Z,8.13
2023-03-26T17:14:52.310Z,8.18
2023-03-26T17:17:32.918Z,8.75
2023-03-26T17:20:11.502Z,7.40
2023-03-26T17:22:44.744Z,7.72
2023-03-26T17:25:35.874Z,6.03
2023-03-26T17:28:45.988Z,8.30
2023-03-26T17:31:23.518Z,5.38
2023-03-26T17:33:53.492Z,7.55
2023-03-26T17:36:43.733Z,10.10
2023-03-26T17:40:12.211Z,9.30
2023-03-26T17:42:40.080Z,8.93
2023-03-26T17:45:17.577Z,9.57
2023-03-26T17:47:49.444Z,9.90
2023-03-26T17:50:22.904Z,8.40
2023-03-26T17:52:57.527Z,6.43
2023-03-26T17:55:30.953Z,11.02
2023-03-26T17:58:00.671Z,7.47
2023-03-26T18:00:32.593Z,7.68
2023-03-26T18:03:06.940Z,7.95
2023-03-26T18:05:40.535Z,6.88
2023-03-26T18:08:49.777Z,9.50
2023-03-26T18:11:32.481Z,8.32
2023-03-26T18:14:35.248Z,9.68
2023-03-26T18:17:03.792Z,5.72
2023-03-26T18:19:47.730Z,7.07
2023-03-26T18:22:21.053Z,10.48
2023-03-26T18:24:49.738Z,7.15
2023-03-26T18:27:20.167Z,9.90
2023-03-26T18:30:02.299Z,9.65
2023-03-26T18:32:33.491Z,9.23
2023-03-26T18:35:14.282Z,13.00
2023-03-26T18:37:46.000Z,8.05
2023-03-26T18:40:19.060Z,7.90
2023-03-26T18:42:49.638Z,8.05
2023-03-26T18:45:27.637Z,11.15
2023-03-26T18:47:58.007Z,6.93
2023-03-26T18:50:29.028Z,7.57
2023-03-26T18:53:00.460Z,7.63
2023-03-26T18:55:30.233Z,9.35
2023-03-26T18:57:58.394Z,6.43
2023-03-26T19:00:30.258Z,6.22
2023-03-26T19:03:05.806Z,8.15
2023-03-26T19:05:35.794Z,10.80
2023-03-26T19:08:07.100Z,8.10
2023-03-26T19:10:35.187Z,10.65
2023-03-26T19:13:04.142Z,7.32
2023-03-26T19:15:33.926Z,8.70
2023-03-26T19:18:07.297Z,11.95
2023-03-26T19:20:41.359Z,9.32
2023-03-26T19:23:15.711Z,9.73
2023-03-26T19:25:47.838Z,10.00
2023-03-26T19:28:20.012Z,10.18
2023-03-26T19:30:49.447Z,15.60
2023-03-26T19:33:21.427Z,14.93
2023-03-26T19:35:53.734Z,10.70
2023-03-26T19:38:26.018Z,10.02
2023-03-26T19:40:56.884Z,8.32
2023-03-26T19:43:25.873Z,13.93
2023-03-26T19:45:59.922Z,9.38
2023-03-26T19:48:45.745Z,9.77
2023-03-26T19:51:20.953Z,10.90
2023-03-26T19:53:54.077Z,14.80
2023-03-26T19:56:22.904Z,7.28
2023-03-26T19:58:51.193Z,8.70
2023-03-26T20:01:21.511Z,7.20
2023-03-26T20:03:52.686Z,8.30
2023-03-26T20:09:07.482Z,10.45
2023-03-26T20:11:38.750Z,9.25
2023-03-26T20:16:41.538Z,7.25
2023-03-26T20:19:11.142Z,9.25
2023-03-26T20:21:40.191Z,9.18
2023-03-26T20:24:14.708Z,7.20
2023-03-26T20:26:42.926Z,7.32
2023-03-26T20:29:11.519Z,6.60
2023-03-26T20:31:41.466Z,6.72
2023-03-26T20:34:19.730Z,8.75
2023-03-26T20:36:48.110Z,9.48
2023-03-26T20:39:17.279Z,7.38
2023-03-26T20:41:47.094Z,8.75
2023-03-26T20:44:17.098Z,6.65
2023-03-26T20:46:46.680Z,7.65
2023-03-26T20:49:14.935Z,4.88
2023-03-26T20:51:44.510Z,9.13
2023-03-26T20:54:18.828Z,8.10
2023-03-26T20:56:47.826Z,7.72
2023-03-26T20:59:21.596Z,8.95
2023-03-26T21:01:50.943Z,7.97
2023-03-26T21:04:19.890Z,8.15
2023-03-26T21:06:48.152Z,5.57
2023-03-26T21:09:23.559Z,6.82
2023-03-26T21:11:59.322Z,6.55
2023-03-26T21:14:31.496Z,9.38
2023-03-26T21:16:59.860Z,10.50
2023-03-26T21:19:28.288Z,9.38
2023-03-26T21:22:04.725Z,10.10
2023-03-26T21:24:47.086Z,8.48
2023-03-26T21:27:22.254Z,11.15
2023-03-26T21:29:50.462Z,6.78
2023-03-26T21:32:18.779Z,7.78
2023-03-26T21:34:55.536Z,9.10
2023-03-26T21:37:26.507Z,9.88
2023-03-26T21:39:56.595Z,10.30
2023-03-26T21:42:26.834Z,7.20
2023-03-26T21:44:55.358Z,7.85
2023-03-26T21:47:23.629Z,6.13
2023-03-26T21:49:52.345Z,9.98
2023-03-26T21:52:22.521Z,7.53
2023-03-26T21:54:50.945Z,8.05
2023-03-26T21:57:44.030Z,7.28
2023-03-26T22:00:15.456Z,9.80
2023-03-26T22:03:04.952Z,8.73
2023-03-26T22:05:39.379Z,9.43
2023-03-26T22:08:08.160Z,7.82
2023-03-26T22:10:35.971Z,6.88
2023-03-26T22:13:05.088Z,8.55
2023-03-26T22:15:33.955Z,6.03
2023-03-26T22:18:03.201Z,7.43
2023-03-26T22:20:31.069Z,7.80
2023-03-26T22:22:59.697Z,8.63
2023-03-26T22:25:27.656Z,7.95
2023-03-26T22:27:57.290Z,9.20
2023-03-26T22:30:27.198Z,6.18
2023-03-26T22:32:55.693Z,6.68
2023-03-26T22:35:23.697Z,8.80
2023-03-26T22:37:51.515Z,8.07
2023-03-26T22:40:20.516Z,7.85
2023-03-26T22:42:48.365Z,6.38
2023-03-26T22:45:17.150Z,3.55
2023-03-26T22:47:46.384Z,6.97
2023-03-26T22:50:14.226Z,6.10
2023-03-26T22:52:42.002Z,6.18
2023-03-26T22:55:11.103Z,7.13
2023-03-26T22:57:38.984Z,8.55
2023-03-26T23:00:16.211Z,8.20
2023-03-26T23:02:46.334Z,5.95
2023-03-26T23:05:14.788Z,7.47
2023-03-26T23:07:43.512Z,5.53
2023-03-26T23:10:12.220Z,5.72
2023-03-26T23:12:40.311Z,7.70
2023-03-26T23:15:09.794Z,5.82
2023-03-26T23:17:39.255Z,6.00
2023-03-26T23:20:14.645Z,8.57
2023-03-26T23:22:43.689Z,7.45
2023-03-26T23:25:12.510Z,9.13
2023-03-26T23:27:41.379Z,7.57
2023-03-26T23:30:11.861Z,6.95
2023-03-26T23:32:40.713Z,8.13
2023-03-26T23:35:11.137Z,8.75
2023-03-26T23:37:38.999Z,6.80
2023-03-26T23:40:10.284Z,6.88
2023-03-26T23:42:38.537Z,6.88
2023-03-26T23:45:08.319Z,4.85
2023-03-26T23:47:37.169Z,7.35
2023-03-26T23:50:06.216Z,8.15
2023-03-26T23:52:37.431Z,7.88
2023-03-26T23:55:06.223Z,7.80
2023-03-26T23:57:34.007Z,6.55
